createdAt,value
2022-11-26T00:01:19.898Z,56.93
2022-11-26T00:03:47.511Z,43.10
2022-11-26T00:06:34.694Z,44.60
2022-11-26T00:09:02.545Z,39.27
2022-11-26T00:11:29.502Z,31.43
2022-11-26T00:13:56.373Z,45.73
2022-11-26T00:16:23.403Z,40.60
2022-11-26T00:18:50.261Z,37.23
2022-11-26T00:21:23.823Z,35.10
2022-11-26T00:23:51.887Z,33.77
2022-11-26T00:26:21.781Z,32.57
2022-11-26T00:28:57.043Z,35.13
2022-11-26T00:31:24.664Z,28.63
2022-11-26T00:33:51.559Z,34.87
2022-11-26T00:36:28.079Z,30.20
2022-11-26T00:38:58.770Z,27.60
2022-11-26T00:41:30.565Z,34.37
2022-11-26T00:43:58.802Z,38.23
2022-11-26T00:46:26.661Z,34.23
2022-11-26T00:48:53.663Z,30.93
2022-11-26T00:51:24.922Z,27.57
2022-11-26T00:53:55.180Z,32.87
2022-11-26T00:56:22.610Z,29.07
2022-11-26T00:58:50.570Z,36.83
2022-11-26T01:01:23.640Z,34.17
2022-11-26T01:03:51.332Z,33.93
2022-11-26T01:06:22.278Z,28.07
2022-11-26T01:08:49.832Z,34.87
2022-11-26T01:11:22.786Z,34.40
2022-11-26T01:13:52.306Z,34.67
2022-11-26T01:16:36.458Z,28.07
2022-11-26T01:19:03.529Z,28.70
2022-11-26T01:21:31.789Z,21.33
2022-11-26T01:23:58.582Z,33.87
2022-11-26T01:26:33.544Z,26.03
2022-11-26T01:29:00.371Z,27.40
2022-11-26T01:31:29.176Z,35.77
2022-11-26T01:33:57.211Z,28.67
2022-11-26T01:36:28.409Z,27.67
2022-11-26T01:38:57.197Z,30.87
2022-11-26T01:41:23.961Z,23.33
2022-11-26T01:43:52.944Z,22.20
2022-11-26T01:46:22.566Z,22.37
2022-11-26T01:48:50.574Z,25.10
2022-11-26T01:51:25.263Z,22.43
2022-11-26T01:53:56.649Z,21.90
2022-11-26T01:56:55.030Z,26.37
2022-11-26T01:59:33.037Z,23.07
2022-11-26T02:02:00.536Z,20.23
2022-11-26T02:04:38.107Z,19.97
2022-11-26T02:07:05.875Z,16.53
2022-11-26T02:09:33.038Z,17.33
2022-11-26T02:12:00.274Z,19.47
2022-11-26T02:14:41.477Z,25.37
2022-11-26T02:17:20.461Z,19.97
2022-11-26T02:20:12.094Z,15.40
2022-11-26T02:23:06.306Z,18.43
2022-11-26T02:26:02.943Z,27.20
2022-11-26T02:28:52.790Z,24.80
2022-11-26T02:31:28.378Z,19.97
2022-11-26T02:34:22.894Z,26.30
2022-11-26T02:37:00.567Z,25.83
2022-11-26T02:39:29.183Z,17.87
2022-11-26T02:42:04.675Z,18.27
2022-11-26T02:44:42.012Z,19.17
2022-11-26T02:47:13.048Z,23.30
2022-11-26T02:49:41.981Z,21.03
2022-11-26T02:52:11.525Z,20.63
2022-11-26T02:54:40.609Z,13.53
2022-11-26T02:57:12.001Z,15.43
2022-11-26T02:59:39.862Z,26.47
2022-11-26T03:02:32.447Z,18.07
2022-11-26T03:05:02.089Z,17.70
2022-11-26T03:07:31.947Z,16.07
2022-11-26T03:10:01.496Z,17.53
2022-11-26T03:12:29.351Z,18.70
2022-11-26T03:14:56.243Z,18.53
2022-11-26T03:17:23.236Z,18.23
2022-11-26T03:19:50.474Z,13.60
2022-11-26T03:22:17.847Z,16.97
2022-11-26T03:24:44.715Z,12.90
2022-11-26T03:27:11.550Z,18.57
2022-11-26T03:29:38.434Z,14.77
2022-11-26T03:32:05.692Z,16.03
2022-11-26T03:34:32.651Z,15.83
2022-11-26T03:36:59.536Z,13.13
2022-11-26T03:39:26.386Z,15.13
2022-11-26T03:41:53.207Z,17.73
2022-11-26T03:44:20.098Z,17.53
2022-11-26T03:46:46.969Z,15.77
2022-11-26T03:49:13.773Z,23.17
2022-11-26T03:51:40.628Z,15.50
2022-11-26T03:54:07.511Z,14.03
2022-11-26T03:56:34.378Z,12.13
2022-11-26T03:59:01.245Z,14.07
2022-11-26T04:01:28.216Z,15.80
2022-11-26T04:03:55.072Z,13.13
2022-11-26T04:06:21.929Z,16.93
2022-11-26T04:08:48.834Z,17.40
2022-11-26T04:11:15.701Z,71.40
2022-11-26T04:13:42.535Z,19.50
2022-11-26T04:16:10.047Z,13.33
2022-11-26T04:18:36.928Z,17.93
2022-11-26T04:21:07.250Z,18.17
2022-11-26T04:23:34.928Z,19.10
2022-11-26T04:26:02.116Z,15.13
2022-11-26T04:28:28.956Z,17.27
2022-11-26T04:30:55.853Z,12.53
2022-11-26T04:33:22.735Z,18.17
2022-11-26T04:35:50.989Z,16.93
2022-11-26T04:38:21.535Z,16.03
2022-11-26T04:40:51.039Z,16.17
2022-11-26T04:43:17.947Z,17.60
2022-11-26T04:45:44.823Z,17.27
2022-11-26T04:48:11.871Z,16.17
2022-11-26T04:50:39.148Z,25.00
2022-11-26T04:53:05.977Z,23.17
2022-11-26T04:55:32.781Z,20.10
2022-11-26T04:57:59.716Z,23.57
2022-11-26T05:00:26.997Z,11.20
2022-11-26T05:02:53.916Z,20.73
2022-11-26T05:05:20.935Z,21.47
2022-11-26T05:07:47.863Z,17.50
2022-11-26T05:10:14.782Z,12.53
2022-11-26T05:12:41.648Z,17.50
2022-11-26T05:15:08.862Z,12.83
2022-11-26T05:17:35.743Z,13.43
2022-11-26T05:20:02.638Z,17.13
2022-11-26T05:22:29.522Z,15.03
2022-11-26T05:24:56.329Z,24.80
2022-11-26T05:27:23.371Z,12.80
2022-11-26T05:29:50.228Z,11.90
2022-11-26T05:32:17.055Z,20.30
2022-11-26T05:34:43.950Z,18.27
2022-11-26T05:37:11.057Z,15.27
2022-11-26T05:39:37.941Z,22.17
2022-11-26T05:42:08.967Z,21.80
2022-11-26T05:44:37.065Z,23.03
2022-11-26T05:47:04.462Z,14.87
2022-11-26T05:49:31.306Z,19.40
2022-11-26T05:51:58.142Z,20.37
2022-11-26T05:54:25.248Z,20.93
2022-11-26T05:56:55.571Z,17.40
2022-11-26T05:59:26.970Z,15.80
2022-11-26T06:01:53.888Z,19.07
2022-11-26T06:04:20.950Z,19.43
2022-11-26T06:06:47.886Z,16.23
2022-11-26T06:09:14.732Z,14.00
2022-11-26T06:11:41.539Z,20.70
2022-11-26T06:14:10.483Z,28.50
2022-11-26T06:16:37.528Z,19.30
2022-11-26T06:19:04.473Z,21.47
2022-11-26T06:21:31.377Z,22.53
2022-11-26T06:23:59.684Z,21.83
2022-11-26T06:26:27.038Z,23.13
2022-11-26T06:28:53.931Z,18.57
2022-11-26T06:31:20.973Z,21.87
2022-11-26T06:33:47.974Z,21.33
2022-11-26T06:36:14.864Z,24.63
2022-11-26T06:38:41.812Z,27.03
2022-11-26T06:41:09.002Z,21.93
2022-11-26T06:43:36.268Z,21.77
2022-11-26T06:46:08.621Z,20.87
2022-11-26T06:48:36.933Z,18.37
2022-11-26T06:51:10.917Z,22.63
2022-11-26T06:53:38.473Z,24.37
2022-11-26T06:56:18.551Z,26.23
2022-11-26T06:58:47.453Z,26.90
2022-11-26T07:01:19.616Z,21.27
2022-11-26T07:03:47.001Z,28.97
2022-11-26T07:06:25.501Z,24.20
2022-11-26T07:08:54.118Z,16.73
2022-11-26T07:11:21.882Z,17.90
2022-11-26T07:13:49.148Z,21.30
2022-11-26T07:16:16.534Z,25.33
2022-11-26T07:18:43.598Z,17.97
2022-11-26T07:21:12.767Z,16.87
2022-11-26T07:23:40.652Z,28.10
2022-11-26T07:26:08.762Z,21.70
2022-11-26T07:28:36.269Z,21.83
2022-11-26T07:31:16.816Z,24.17
2022-11-26T07:33:45.109Z,17.33
2022-11-26T07:36:16.666Z,19.20
2022-11-26T07:38:43.954Z,24.70
2022-11-26T07:41:16.171Z,27.53
2022-11-26T07:43:43.845Z,24.10
2022-11-26T07:46:13.325Z,28.77
2022-11-26T07:48:40.594Z,20.33
2022-11-26T07:51:15.190Z,24.67
2022-11-26T07:53:42.031Z,20.90
2022-11-26T07:56:08.887Z,21.90
2022-11-26T07:58:35.921Z,25.00
2022-11-26T08:01:10.468Z,17.57
2022-11-26T08:03:39.245Z,21.70
2022-11-26T08:06:08.426Z,24.03
2022-11-26T08:08:35.842Z,26.97
2022-11-26T08:11:04.655Z,17.10
2022-11-26T08:13:31.687Z,18.70
2022-11-26T08:15:58.569Z,24.90
2022-11-26T08:18:25.452Z,14.73
2022-11-26T08:20:59.000Z,14.67
2022-11-26T08:23:25.957Z,13.27
2022-11-26T08:26:14.886Z,11.17
2022-11-26T08:28:40.144Z,10.90
2022-11-26T08:31:09.427Z,10.63
2022-11-26T08:33:36.721Z,12.20
2022-11-26T08:36:10.013Z,11.37
2022-11-26T08:38:37.566Z,10.70
2022-11-26T08:41:07.435Z,8.93
2022-11-26T08:44:05.569Z,13.77
2022-11-26T08:46:26.105Z,12.20
2022-11-26T08:48:55.949Z,11.17
2022-11-26T08:51:23.198Z,14.23
2022-11-26T08:53:50.183Z,10.37
2022-11-26T08:56:17.067Z,15.40
2022-11-26T08:58:45.598Z,11.33
2022-11-26T09:01:17.168Z,7.97
2022-11-26T09:03:44.447Z,11.23
2022-11-26T09:06:11.783Z,11.90
2022-11-26T09:08:59.146Z,14.70
2022-11-26T09:11:27.774Z,11.20
2022-11-26T09:13:55.178Z,11.00
2022-11-26T09:16:22.952Z,11.73
2022-11-26T09:18:51.132Z,8.90
2022-11-26T09:21:18.560Z,9.83
2022-11-26T09:23:45.380Z,9.33
2022-11-26T09:26:12.281Z,9.53
2022-11-26T09:28:39.654Z,8.50
2022-11-26T09:31:06.857Z,9.23
2022-11-26T09:33:33.701Z,8.53
2022-11-26T09:36:06.028Z,6.80
2022-11-26T09:38:33.874Z,7.60
2022-11-26T09:41:03.779Z,6.80
2022-11-26T09:43:53.209Z,10.03
2022-11-26T09:46:40.617Z,7.07
2022-11-26T09:49:13.662Z,8.70
2022-11-26T09:51:44.127Z,6.60
2022-11-26T09:54:18.052Z,7.87
2022-11-26T09:56:45.186Z,8.07
2022-11-26T09:59:15.634Z,16.77
2022-11-26T10:01:42.749Z,8.60
2022-11-26T10:04:22.833Z,7.67
2022-11-26T10:07:12.899Z,11.53
2022-11-26T10:10:04.833Z,7.70
2022-11-26T10:12:56.252Z,7.87
2022-11-26T10:15:43.130Z,8.63
2022-11-26T10:18:40.391Z,7.57
2022-11-26T10:21:27.486Z,7.53
2022-11-26T10:24:26.637Z,8.00
2022-11-26T10:26:55.275Z,8.90
2022-11-26T10:29:27.667Z,8.23
2022-11-26T10:31:59.853Z,10.13
2022-11-26T10:34:41.770Z,7.80
2022-11-26T10:37:09.015Z,6.83
2022-11-26T10:39:35.857Z,6.13
2022-11-26T10:42:40.248Z,9.03
2022-11-26T10:45:21.856Z,7.03
2022-11-26T10:47:49.285Z,12.60
2022-11-26T10:50:46.767Z,9.97
2022-11-26T10:53:26.219Z,10.13
2022-11-26T10:55:59.843Z,8.67
2022-11-26T10:58:37.688Z,8.37
2022-11-26T11:01:05.704Z,9.47
2022-11-26T11:04:06.741Z,8.97
2022-11-26T11:06:43.006Z,7.60
2022-11-26T11:09:25.852Z,9.37
2022-11-26T11:12:20.734Z,7.00
2022-11-26T11:14:48.665Z,7.73
2022-11-26T11:17:32.188Z,6.60
2022-11-26T11:20:06.040Z,8.77
2022-11-26T11:22:32.958Z,6.53
2022-11-26T11:25:00.398Z,13.33
2022-11-26T11:27:41.433Z,7.53
2022-11-26T11:30:26.478Z,9.40
2022-11-26T11:32:57.308Z,9.30
2022-11-26T11:35:25.297Z,8.70
2022-11-26T11:37:59.061Z,8.90
2022-11-26T11:40:29.241Z,8.60
2022-11-26T11:42:59.297Z,8.63
2022-11-26T11:45:37.025Z,12.00
2022-11-26T11:48:25.199Z,8.87
2022-11-26T11:51:10.324Z,12.50
2022-11-26T11:54:12.131Z,12.20
2022-11-26T11:56:48.826Z,11.93
2022-11-26T11:59:58.033Z,19.90
2022-11-26T12:02:43.794Z,11.80
2022-11-26T12:05:16.511Z,12.70
2022-11-26T12:07:53.670Z,13.90
2022-11-26T12:10:46.346Z,10.53
2022-11-26T12:13:15.883Z,14.07
2022-11-26T12:15:52.373Z,15.27
2022-11-26T12:18:24.215Z,11.23
2022-11-26T12:20:55.719Z,14.23
2022-11-26T12:23:41.185Z,14.43
2022-11-26T12:26:36.134Z,12.70
2022-11-26T12:29:05.936Z,14.50
2022-11-26T12:31:42.107Z,13.20
2022-11-26T12:34:21.301Z,14.60
2022-11-26T12:37:07.108Z,14.00
2022-11-26T12:39:49.228Z,12.90
2022-11-26T12:42:45.412Z,14.63
2022-11-26T12:45:38.503Z,13.57
2022-11-26T12:48:18.219Z,15.73
2022-11-26T12:50:53.706Z,11.20
2022-11-26T12:53:36.654Z,16.80
2022-11-26T12:56:13.211Z,18.60
2022-11-26T12:58:59.481Z,17.27
2022-11-26T13:01:27.973Z,13.13
2022-11-26T13:04:21.603Z,19.47
2022-11-26T13:07:09.696Z,16.37
2022-11-26T13:09:57.923Z,14.90
2022-11-26T13:12:46.769Z,14.10
2022-11-26T13:15:19.338Z,16.33
2022-11-26T13:17:50.950Z,14.73
2022-11-26T13:20:51.978Z,18.53
2022-11-26T13:23:24.722Z,14.33
2022-11-26T13:26:06.526Z,14.80
2022-11-26T13:28:48.862Z,16.80
2022-11-26T13:32:09.808Z,18.27
2022-11-26T13:35:14.455Z,17.83
2022-11-26T13:37:52.909Z,17.30
2022-11-26T13:40:38.027Z,17.30
2022-11-26T13:43:34.711Z,16.73
2022-11-26T13:46:22.058Z,19.57
2022-11-26T13:49:06.304Z,16.53
2022-11-26T13:51:53.772Z,14.33
2022-11-26T13:54:52.623Z,20.13
2022-11-26T13:57:31.771Z,16.43
2022-11-26T13:59:59.958Z,23.97
2022-11-26T14:02:36.806Z,17.53
2022-11-26T14:05:13.731Z,17.60
2022-11-26T14:07:41.478Z,20.70
2022-11-26T14:10:35.150Z,13.20
2022-11-26T14:13:02.274Z,14.97
2022-11-26T14:15:41.425Z,12.17
2022-11-26T14:18:13.840Z,15.43
2022-11-26T14:21:01.591Z,11.93
2022-11-26T14:23:48.342Z,16.97
2022-11-26T14:26:34.568Z,22.30
2022-11-26T14:29:12.551Z,15.13
2022-11-26T14:31:41.733Z,18.43
2022-11-26T14:34:26.130Z,18.43
2022-11-26T14:36:58.506Z,22.03
2022-11-26T14:39:26.563Z,21.63
2022-11-26T14:42:05.756Z,16.33
2022-11-26T14:44:33.834Z,19.23
2022-11-26T14:47:08.919Z,17.83
2022-11-26T14:49:39.327Z,17.37
2022-11-26T14:52:17.171Z,20.10
2022-11-26T14:54:48.056Z,19.27
2022-11-26T14:57:20.087Z,19.60
2022-11-26T15:00:04.658Z,18.97
2022-11-26T15:02:32.240Z,17.90
2022-11-26T15:05:01.688Z,23.83
2022-11-26T15:07:30.602Z,16.70
2022-11-26T15:10:15.970Z,19.30
2022-11-26T15:12:44.180Z,18.40
2022-11-26T15:15:17.747Z,16.30
2022-11-26T15:17:49.385Z,23.40
2022-11-26T15:20:18.253Z,25.57
2022-11-26T15:22:57.085Z,16.23
2022-11-26T15:25:37.509Z,13.10
2022-11-26T15:28:15.312Z,14.90
2022-11-26T15:30:52.373Z,18.37
2022-11-26T15:33:20.247Z,18.73
2022-11-26T15:35:49.173Z,16.40
2022-11-26T15:38:20.568Z,16.50
2022-11-26T15:40:48.291Z,13.20
2022-11-26T15:43:43.105Z,15.73
2022-11-26T15:46:15.185Z,20.90
2022-11-26T15:48:52.081Z,17.67
2022-11-26T15:51:37.398Z,16.00
2022-11-26T15:54:17.914Z,15.37
2022-11-26T15:56:51.625Z,14.63
2022-11-26T15:59:20.103Z,17.90
2022-11-26T16:01:47.912Z,17.33
2022-11-26T16:04:33.379Z,16.70
2022-11-26T16:07:18.626Z,16.13
2022-11-26T16:09:46.740Z,21.87
2022-11-26T16:12:34.181Z,16.00
2022-11-26T16:15:22.858Z,18.53
2022-11-26T16:17:50.781Z,22.80
2022-11-26T16:20:23.243Z,20.87
2022-11-26T16:23:00.830Z,20.27
2022-11-26T16:25:34.535Z,20.43
2022-11-26T16:28:14.680Z,43.50
2022-11-26T16:30:43.820Z,45.40
2022-11-26T16:33:11.102Z,22.67
2022-11-26T16:35:46.657Z,19.00
2022-11-26T16:38:25.998Z,20.63
2022-11-26T16:40:54.293Z,19.20
2022-11-26T16:43:21.992Z,19.50
2022-11-26T16:45:50.660Z,18.63
2022-11-26T16:48:27.713Z,32.30
2022-11-26T16:50:55.804Z,23.30
2022-11-26T16:53:23.134Z,24.60
2022-11-26T16:55:51.107Z,24.50
2022-11-26T16:58:29.410Z,21.70
2022-11-26T17:00:57.418Z,21.63
2022-11-26T17:03:25.457Z,25.40
2022-11-26T17:05:55.220Z,21.90
2022-11-26T17:08:22.625Z,23.53
2022-11-26T17:10:50.976Z,23.77
2022-11-26T17:13:18.351Z,23.00
2022-11-26T17:15:45.647Z,33.57
2022-11-26T17:18:23.691Z,27.17
2022-11-26T17:20:51.863Z,25.53
2022-11-26T17:23:18.806Z,20.00
2022-11-26T17:25:50.643Z,21.03
2022-11-26T17:28:17.568Z,24.83
2022-11-26T17:30:45.419Z,23.80
2022-11-26T17:33:12.608Z,28.10
2022-11-26T17:35:39.466Z,22.27
2022-11-26T17:38:18.782Z,25.37
2022-11-26T17:40:46.449Z,24.93
2022-11-26T17:43:13.685Z,38.63
2022-11-26T17:45:41.581Z,33.33
2022-11-26T17:48:13.308Z,108.27
2022-11-26T17:50:40.915Z,42.80
2022-11-26T17:53:07.851Z,34.17
2022-11-26T17:55:34.858Z,32.33
2022-11-26T17:58:01.724Z,37.07
2022-11-26T18:00:30.117Z,32.93
2022-11-26T18:02:57.579Z,34.00
2022-11-26T18:05:24.987Z,24.53
2022-11-26T18:07:52.453Z,21.80
2022-11-26T18:10:21.071Z,26.67
2022-11-26T18:12:48.950Z,26.50
2022-11-26T18:15:24.387Z,32.80
2022-11-26T18:17:54.779Z,34.03
2022-11-26T18:20:24.991Z,34.83
2022-11-26T18:22:57.987Z,28.83
2022-11-26T18:25:25.327Z,31.23
2022-11-26T18:27:52.740Z,29.63
2022-11-26T18:30:20.038Z,32.37
2022-11-26T18:32:46.881Z,24.53
2022-11-26T18:35:14.011Z,29.17
2022-11-26T18:37:41.744Z,29.50
2022-11-26T18:40:11.963Z,32.30
2022-11-26T18:42:38.994Z,28.97
2022-11-26T18:45:08.006Z,34.77
2022-11-26T18:47:34.955Z,24.70
2022-11-26T18:50:01.855Z,36.23
2022-11-26T18:52:28.700Z,27.40
2022-11-26T18:54:55.626Z,30.07
2022-11-26T18:57:22.726Z,25.00
2022-11-26T18:59:50.659Z,30.37
2022-11-26T19:02:17.658Z,32.97
2022-11-26T19:04:44.757Z,34.93
2022-11-26T19:07:12.895Z,35.40
2022-11-26T19:09:40.205Z,45.93
2022-11-26T19:12:07.502Z,35.50
2022-11-26T19:14:34.318Z,39.97
2022-11-26T19:17:01.286Z,40.50
2022-11-26T19:19:28.336Z,39.27
2022-11-26T19:22:01.113Z,40.10
2022-11-26T19:24:29.422Z,40.67
2022-11-26T19:26:56.819Z,43.90
2022-11-26T19:29:23.839Z,43.23
2022-11-26T19:31:50.703Z,45.70
2022-11-26T19:34:17.903Z,48.73
2022-11-26T19:36:48.475Z,62.70
2022-11-26T19:39:16.723Z,54.97
2022-11-26T19:41:43.995Z,45.27
2022-11-26T19:44:10.930Z,36.43
2022-11-26T19:46:40.940Z,38.80
2022-11-26T19:49:11.190Z,36.93
2022-11-26T19:51:38.388Z,38.10
2022-11-26T19:54:05.673Z,38.40
2022-11-26T19:56:33.394Z,37.77
2022-11-26T19:59:02.275Z,32.20
2022-11-26T20:01:31.691Z,32.30
2022-11-26T20:04:00.467Z,36.07
2022-11-26T20:06:28.297Z,27.23
2022-11-26T20:08:56.012Z,24.17
2022-11-26T20:11:23.738Z,30.23
2022-11-26T20:13:51.083Z,25.90
2022-11-26T20:16:20.993Z,30.13
2022-11-26T20:18:48.598Z,25.93
2022-11-26T20:21:19.846Z,32.77
2022-11-26T20:23:47.979Z,32.63
2022-11-26T20:26:25.556Z,26.43
2022-11-26T20:28:53.617Z,27.10
2022-11-26T20:31:23.990Z,35.20
2022-11-26T20:33:54.821Z,40.40
2022-11-26T20:36:23.454Z,28.93
2022-11-26T20:38:54.509Z,29.13
2022-11-26T20:41:22.093Z,32.93
2022-11-26T20:43:53.560Z,31.83
2022-11-26T20:46:24.437Z,31.60
2022-11-26T20:48:51.336Z,38.77
2022-11-26T20:51:21.861Z,48.67
2022-11-26T20:53:52.768Z,41.50
2022-11-26T20:56:21.668Z,50.93
2022-11-26T20:58:50.006Z,50.80
2022-11-26T21:01:25.249Z,53.00
2022-11-26T21:03:53.181Z,53.57
2022-11-26T21:06:28.939Z,57.23
2022-11-26T21:09:01.340Z,54.83
2022-11-26T21:11:29.130Z,50.97
2022-11-26T21:13:57.474Z,51.67
2022-11-26T21:16:24.428Z,47.93
2022-11-26T21:18:54.625Z,42.23
2022-11-26T21:21:22.334Z,42.57
2022-11-26T21:23:49.211Z,46.10
2022-11-26T21:26:19.103Z,46.10
2022-11-26T21:28:51.715Z,47.90
2022-11-26T21:31:20.151Z,50.40
2022-11-26T21:33:53.236Z,49.80
2022-11-26T21:36:20.082Z,41.10
2022-11-26T21:38:50.044Z,46.80
2022-11-26T21:41:19.933Z,41.37
2022-11-26T21:43:47.826Z,43.00
2022-11-26T21:46:17.797Z,39.50
2022-11-26T21:48:45.107Z,42.30
2022-11-26T21:51:15.247Z,40.83
2022-11-26T21:53:42.875Z,41.17
2022-11-26T21:56:16.915Z,41.87
2022-11-26T21:58:44.497Z,51.50
2022-11-26T22:01:13.083Z,60.53
2022-11-26T22:03:45.056Z,55.20
2022-11-26T22:06:12.958Z,52.87
2022-11-26T22:08:40.452Z,45.43
2022-11-26T22:11:12.416Z,47.57
2022-11-26T22:13:40.404Z,43.73
2022-11-26T22:16:08.603Z,46.37
2022-11-26T22:18:40.067Z,40.17
2022-11-26T22:21:25.253Z,38.60
2022-11-26T22:23:52.605Z,39.70
2022-11-26T22:26:20.294Z,43.63
2022-11-26T22:28:47.690Z,45.63
2022-11-26T22:31:18.264Z,38.90
2022-11-26T22:33:45.858Z,40.17
2022-11-26T22:36:13.270Z,58.80
2022-11-26T22:38:41.131Z,86.53
2022-11-26T22:41:11.926Z,110.30
2022-11-26T22:43:39.214Z,118.33
2022-11-26T22:46:15.925Z,139.57
2022-11-26T22:48:43.762Z,89.93
2022-11-26T22:51:10.827Z,81.03
2022-11-26T22:53:37.928Z,88.27
2022-11-26T22:56:05.467Z,73.90
2022-11-26T22:58:34.395Z,82.67
2022-11-26T23:01:04.582Z,74.40
2022-11-26T23:03:34.511Z,82.93
2022-11-26T23:06:11.762Z,63.87
2022-11-26T23:08:39.787Z,71.70
2022-11-26T23:11:17.672Z,73.43
2022-11-26T23:13:47.132Z,78.80
2022-11-26T23:16:14.733Z,64.57
2022-11-26T23:18:42.205Z,65.10
2022-11-26T23:21:17.625Z,60.63
2022-11-26T23:23:45.170Z,68.67
2022-11-26T23:26:14.621Z,74.50
2022-11-26T23:28:41.793Z,64.60
2022-11-26T23:31:16.294Z,60.30
2022-11-26T23:33:43.517Z,53.17
2022-11-26T23:36:10.807Z,62.50
2022-11-26T23:38:38.024Z,65.57
2022-11-26T23:41:06.380Z,69.73
2022-11-26T23:43:36.098Z,65.77
2022-11-26T23:46:10.431Z,62.87
2022-11-26T23:48:37.705Z,86.17
2022-11-26T23:51:09.682Z,125.03
2022-11-26T23:53:38.333Z,87.23
2022-11-26T23:56:08.227Z,133.33
2022-11-26T23:58:35.104Z,65.80
